createdAt,value
2022-08-23T00:01:27.940Z,3.70
2022-08-23T00:04:04.258Z,3.70
2022-08-23T00:06:32.403Z,3.65
2022-08-23T00:08:59.679Z,3.58
2022-08-23T00:11:31.238Z,3.88
2022-08-23T00:14:02.818Z,4.07
2022-08-23T00:16:30.043Z,3.60
2022-08-23T00:18:57.314Z,3.83
2022-08-23T00:21:25.077Z,3.92
2022-08-23T00:23:52.205Z,3.67
2022-08-23T00:26:21.001Z,3.78
2022-08-23T00:28:49.854Z,3.78
2022-08-23T00:31:18.777Z,3.60
2022-08-23T00:33:46.254Z,3.67
2022-08-23T00:36:13.607Z,3.65
2022-08-23T00:38:41.068Z,3.53
2022-08-23T00:41:08.530Z,3.63
2022-08-23T00:43:58.618Z,3.70
2022-08-23T00:46:56.244Z,3.70
2022-08-23T00:49:24.538Z,3.58
2022-08-23T00:51:57.821Z,3.78
2022-08-23T00:54:27.567Z,4.27
2022-08-23T00:56:58.025Z,3.75
2022-08-23T00:59:26.160Z,3.75
2022-08-23T01:01:53.689Z,3.95
2022-08-23T01:04:21.373Z,4.05
2022-08-23T01:07:02.943Z,3.80
2022-08-23T01:09:30.505Z,3.60
2022-08-23T01:12:08.899Z,4.07
2022-08-23T01:15:16.873Z,3.90
2022-08-23T01:17:53.900Z,3.85
2022-08-23T01:20:27.135Z,3.47
2022-08-23T01:23:02.727Z,3.80
2022-08-23T01:25:33.397Z,3.55
2022-08-23T01:28:01.483Z,4.15
2022-08-23T01:30:32.907Z,3.95
2022-08-23T01:33:07.626Z,3.67
2022-08-23T01:35:42.129Z,3.70
2022-08-23T01:38:11.621Z,3.70
2022-08-23T01:40:40.061Z,3.90
2022-08-23T01:43:08.219Z,3.78
2022-08-23T01:45:36.300Z,3.85
2022-08-23T01:48:04.182Z,3.67
2022-08-23T01:50:31.612Z,3.75
2022-08-23T01:52:59.707Z,3.97
2022-08-23T01:55:27.761Z,4.47
2022-08-23T01:57:57.682Z,4.28
2022-08-23T02:00:30.700Z,3.70
2022-08-23T02:03:00.127Z,3.50
2022-08-23T02:05:28.394Z,3.88
2022-08-23T02:07:56.458Z,4.15
2022-08-23T02:10:23.913Z,3.40
2022-08-23T02:12:51.027Z,3.72
2022-08-23T02:15:19.255Z,3.75
2022-08-23T02:17:46.769Z,4.15
2022-08-23T02:20:14.560Z,3.67
2022-08-23T02:22:41.977Z,3.47
2022-08-23T02:25:09.643Z,3.15
2022-08-23T02:27:37.081Z,3.60
2022-08-23T02:30:05.311Z,3.78
2022-08-23T02:32:32.487Z,3.78
2022-08-23T02:35:04.565Z,3.40
2022-08-23T02:37:34.545Z,3.78
2022-08-23T02:40:01.958Z,3.65
2022-08-23T02:42:29.571Z,3.80
2022-08-23T02:44:56.852Z,3.80
2022-08-23T02:47:24.054Z,3.60
2022-08-23T02:49:52.185Z,3.45
2022-08-23T02:52:19.563Z,4.05
2022-08-23T02:54:46.662Z,3.78
2022-08-23T02:57:13.833Z,3.60
2022-08-23T02:59:42.194Z,3.35
2022-08-23T03:02:09.770Z,3.50
2022-08-23T03:04:37.113Z,3.53
2022-08-23T03:07:04.700Z,3.47
2022-08-23T03:09:31.963Z,3.72
2022-08-23T03:11:59.311Z,3.40
2022-08-23T03:14:27.878Z,3.67
2022-08-23T03:16:58.294Z,3.38
2022-08-23T03:19:25.815Z,3.22
2022-08-23T03:21:53.018Z,3.70
2022-08-23T03:24:22.428Z,3.53
2022-08-23T03:26:49.650Z,3.30
2022-08-23T03:29:16.755Z,3.30
2022-08-23T03:31:43.986Z,3.40
2022-08-23T03:34:12.562Z,3.45
2022-08-23T03:36:39.863Z,3.53
2022-08-23T03:39:07.605Z,3.47
2022-08-23T03:41:34.918Z,3.13
2022-08-23T03:44:02.373Z,3.10
2022-08-23T03:46:33.770Z,3.30
2022-08-23T03:49:02.854Z,3.17
2022-08-23T03:51:31.482Z,3.10
2022-08-23T03:54:00.493Z,3.30
2022-08-23T03:56:29.928Z,3.40
2022-08-23T03:58:59.317Z,3.03
2022-08-23T04:01:28.815Z,3.40
2022-08-23T04:04:02.509Z,3.25
2022-08-23T04:06:32.197Z,3.97
2022-08-23T04:09:00.175Z,3.28
2022-08-23T04:11:28.134Z,3.15
2022-08-23T04:13:55.686Z,3.00
2022-08-23T04:16:22.899Z,3.45
2022-08-23T04:18:50.052Z,3.13
2022-08-23T04:21:22.375Z,3.25
2022-08-23T04:23:49.874Z,3.13
2022-08-23T04:26:16.921Z,3.05
2022-08-23T04:28:47.225Z,3.20
2022-08-23T04:31:14.711Z,3.38
2022-08-23T04:33:42.375Z,3.08
2022-08-23T04:36:09.503Z,2.85
2022-08-23T04:38:36.577Z,2.78
2022-08-23T04:41:22.297Z,3.10
2022-08-23T04:43:49.619Z,3.17
2022-08-23T04:46:17.163Z,3.33
2022-08-23T04:48:47.091Z,3.17
2022-08-23T04:51:14.469Z,2.92
2022-08-23T04:53:42.762Z,3.50
2022-08-23T04:56:10.913Z,3.30
2022-08-23T04:58:38.961Z,2.90
2022-08-23T05:01:08.253Z,3.13
2022-08-23T05:03:35.665Z,3.03
2022-08-23T05:06:04.481Z,3.05
2022-08-23T05:08:32.261Z,2.72
2022-08-23T05:11:07.049Z,2.92
2022-08-23T05:13:37.584Z,3.10
2022-08-23T05:16:06.302Z,3.20
2022-08-23T05:18:34.854Z,3.00
2022-08-23T05:21:03.035Z,3.10
2022-08-23T05:23:32.321Z,3.30
2022-08-23T05:26:01.121Z,3.35
2022-08-23T05:28:31.187Z,3.10
2022-08-23T05:31:11.402Z,3.33
2022-08-23T05:33:39.577Z,2.70
2022-08-23T05:36:07.393Z,2.67
2022-08-23T05:38:36.720Z,3.63
2022-08-23T05:41:05.343Z,3.03
2022-08-23T05:43:34.744Z,2.83
2022-08-23T05:46:12.167Z,2.92
2022-08-23T05:48:42.162Z,3.00
2022-08-23T05:51:26.118Z,3.22
2022-08-23T05:53:54.644Z,2.65
2022-08-23T05:56:31.799Z,2.97
2022-08-23T05:59:01.862Z,2.90
2022-08-23T06:01:30.805Z,2.70
2022-08-23T06:04:06.098Z,2.58
2022-08-23T06:06:37.024Z,3.00
2022-08-23T06:09:07.027Z,2.65
2022-08-23T06:11:34.625Z,2.67
2022-08-23T06:14:04.447Z,2.95
2022-08-23T06:16:38.257Z,2.83
2022-08-23T06:19:07.414Z,3.10
2022-08-23T06:21:35.114Z,3.10
2022-08-23T06:24:02.853Z,2.80
2022-08-23T06:26:33.082Z,2.88
2022-08-23T06:29:05.326Z,2.72
2022-08-23T06:31:51.267Z,2.67
2022-08-23T06:34:23.019Z,2.67
2022-08-23T06:36:55.417Z,2.85
2022-08-23T06:39:25.552Z,3.00
2022-08-23T06:41:58.302Z,2.75
2022-08-23T06:44:25.613Z,2.97
2022-08-23T06:46:53.008Z,2.45
2022-08-23T06:49:20.121Z,2.92
2022-08-23T06:51:50.594Z,2.80
2022-08-23T06:54:23.096Z,3.10
2022-08-23T06:56:54.251Z,2.65
2022-08-23T06:59:21.924Z,2.92
2022-08-23T07:02:04.382Z,3.03
2022-08-23T07:04:33.746Z,3.10
2022-08-23T07:07:02.467Z,2.90
2022-08-23T07:09:30.957Z,3.00
2022-08-23T07:11:59.230Z,2.90
2022-08-23T07:14:28.157Z,3.10
2022-08-23T07:17:01.369Z,3.25
2022-08-23T07:19:31.145Z,2.80
2022-08-23T07:22:00.486Z,3.10
2022-08-23T07:24:32.882Z,3.30
2022-08-23T07:27:01.638Z,3.25
2022-08-23T07:29:30.505Z,2.80
2022-08-23T07:31:58.288Z,3.10
2022-08-23T07:34:26.374Z,2.60
2022-08-23T07:36:54.297Z,2.60
2022-08-23T07:39:23.295Z,2.65
2022-08-23T07:41:52.826Z,2.67
2022-08-23T07:44:20.379Z,2.58
2022-08-23T07:46:53.063Z,3.05
2022-08-23T07:49:20.291Z,2.55
2022-08-23T07:51:49.949Z,2.90
2022-08-23T07:54:19.376Z,2.90
2022-08-23T07:56:46.652Z,2.78
2022-08-23T07:59:14.473Z,3.20
2022-08-23T08:01:44.036Z,2.90
2022-08-23T08:04:12.567Z,2.90
2022-08-23T08:06:46.485Z,2.67
2022-08-23T08:11:43.484Z,3.15
2022-08-23T08:14:11.563Z,2.70
2022-08-23T08:16:42.513Z,2.80
2022-08-23T08:19:11.721Z,2.92
2022-08-23T08:21:42.670Z,2.80
2022-08-23T08:24:13.178Z,2.70
2022-08-23T08:26:42.146Z,2.70
2022-08-23T08:29:12.748Z,3.00
2022-08-23T08:31:43.140Z,3.00
2022-08-23T08:34:12.165Z,2.90
2022-08-23T08:36:49.354Z,2.65
2022-08-23T08:39:20.936Z,3.53
2022-08-23T08:42:07.047Z,3.10
2022-08-23T08:44:55.486Z,3.00
2022-08-23T08:47:48.346Z,3.15
2022-08-23T08:50:24.403Z,3.03
2022-08-23T08:52:57.319Z,3.20
2022-08-23T08:55:40.355Z,3.27
2022-08-23T08:58:12.904Z,3.40
2022-08-23T09:00:47.077Z,3.92
2022-08-23T09:03:20.849Z,3.22
2022-08-23T09:06:04.066Z,3.60
2022-08-23T09:09:03.113Z,3.60
2022-08-23T09:11:39.614Z,3.50
2022-08-23T09:14:25.511Z,3.40
2022-08-23T09:16:55.262Z,2.90
2022-08-23T09:19:25.156Z,3.22
2022-08-23T09:22:11.515Z,3.60
2022-08-23T09:24:39.679Z,3.50
2022-08-23T09:27:11.972Z,3.47
2022-08-23T09:29:50.978Z,3.25
2022-08-23T09:32:27.614Z,3.55
2022-08-23T09:35:25.905Z,3.53
2022-08-23T09:38:03.687Z,3.80
2022-08-23T09:40:45.595Z,3.55
2022-08-23T09:43:27.801Z,3.38
2022-08-23T09:45:54.847Z,3.58
2022-08-23T09:48:43.075Z,3.85
2022-08-23T09:51:23.563Z,3.60
2022-08-23T09:54:05.978Z,3.78
2022-08-23T09:56:42.451Z,4.82
2022-08-23T09:59:27.257Z,3.47
2022-08-23T10:01:57.150Z,4.13
2022-08-23T10:04:30.544Z,4.05
2022-08-23T10:06:58.009Z,4.13
2022-08-23T10:09:27.162Z,3.92
2022-08-23T10:11:55.913Z,3.92
2022-08-23T10:14:26.797Z,4.18
2022-08-23T10:17:19.462Z,3.83
2022-08-23T10:20:11.070Z,4.00
2022-08-23T10:22:49.675Z,4.00
2022-08-23T10:25:45.339Z,3.80
2022-08-23T10:28:39.618Z,4.22
2022-08-23T10:31:25.248Z,4.28
2022-08-23T10:34:12.891Z,4.80
2022-08-23T10:37:00.228Z,4.40
2022-08-23T10:39:29.956Z,4.28
2022-08-23T10:42:16.261Z,4.50
2022-08-23T10:45:04.099Z,3.97
2022-08-23T10:47:59.039Z,4.07
2022-08-23T10:50:28.522Z,4.18
2022-08-23T10:53:09.449Z,4.60
2022-08-23T10:56:03.301Z,4.30
2022-08-23T10:59:01.315Z,4.68
2022-08-23T11:01:46.142Z,4.20
2022-08-23T11:04:37.988Z,4.63
2022-08-23T11:07:28.197Z,4.43
2022-08-23T11:10:25.118Z,4.50
2022-08-23T11:12:59.777Z,4.13
2022-08-23T11:15:47.539Z,4.68
2022-08-23T11:18:33.120Z,4.05
2022-08-23T11:21:18.508Z,4.38
2022-08-23T11:23:54.590Z,4.40
2022-08-23T11:26:27.935Z,4.65
2022-08-23T11:29:17.430Z,4.30
2022-08-23T11:32:17.369Z,4.25
2022-08-23T11:35:09.052Z,4.13
2022-08-23T11:37:52.084Z,3.97
2022-08-23T11:40:39.642Z,3.20
2022-08-23T11:43:37.344Z,3.60
2022-08-23T11:46:23.247Z,4.05
2022-08-23T11:49:14.487Z,3.92
2022-08-23T11:52:00.810Z,3.97
2022-08-23T11:54:34.132Z,3.65
2022-08-23T11:59:58.429Z,3.50
2022-08-23T12:02:40.850Z,3.75
2022-08-23T12:05:20.485Z,3.42
2022-08-23T12:08:02.834Z,3.63
2022-08-23T12:10:42.284Z,3.65
2022-08-23T12:13:22.098Z,3.70
2022-08-23T12:16:17.698Z,3.80
2022-08-23T12:18:48.052Z,3.65
2022-08-23T12:21:41.930Z,3.42
2022-08-23T12:24:25.253Z,3.00
2022-08-23T12:27:10.898Z,4.03
2022-08-23T12:29:52.950Z,3.47
2022-08-23T12:32:44.327Z,3.42
2022-08-23T12:35:40.367Z,3.50
2022-08-23T12:38:15.488Z,3.45
2022-08-23T12:40:50.112Z,4.10
2022-08-23T12:43:29.497Z,3.67
2022-08-23T12:46:01.261Z,3.50
2022-08-23T12:48:32.230Z,3.53
2022-08-23T12:51:03.953Z,3.50
2022-08-23T12:53:40.262Z,3.60
2022-08-23T12:56:31.321Z,3.55
2022-08-23T12:59:05.065Z,3.58
2022-08-23T13:01:36.790Z,3.95
2022-08-23T13:04:11.770Z,3.35
2022-08-23T13:06:48.025Z,3.50
2022-08-23T13:09:17.468Z,3.28
2022-08-23T13:11:46.249Z,3.80
2022-08-23T13:14:37.430Z,3.55
2022-08-23T13:17:31.001Z,3.30
2022-08-23T13:20:01.576Z,3.50
2022-08-23T13:22:31.275Z,3.45
2022-08-23T13:25:24.458Z,3.70
2022-08-23T13:27:45.245Z,3.70
2022-08-23T13:30:15.869Z,3.17
2022-08-23T13:33:15.093Z,3.70
2022-08-23T13:35:50.344Z,3.67
2022-08-23T13:38:32.318Z,3.60
2022-08-23T13:41:13.950Z,3.17
2022-08-23T13:43:44.099Z,3.22
2022-08-23T13:46:26.557Z,3.10
2022-08-23T13:49:32.272Z,3.47
2022-08-23T13:52:11.940Z,3.60
2022-08-23T13:54:51.071Z,3.60
2022-08-23T13:57:21.733Z,3.35
2022-08-23T13:59:48.812Z,3.60
2022-08-23T14:02:17.743Z,3.60
2022-08-23T14:04:45.357Z,3.40
2022-08-23T14:07:12.708Z,3.70
2022-08-23T14:09:40.051Z,4.15
2022-08-23T14:12:12.829Z,3.67
2022-08-23T14:14:41.350Z,3.80
2022-08-23T14:17:11.322Z,3.42
2022-08-23T14:22:28.089Z,3.75
2022-08-23T14:24:55.123Z,3.45
2022-08-23T14:27:22.275Z,3.40
2022-08-23T14:29:49.331Z,3.72
2022-08-23T14:32:16.435Z,3.20
2022-08-23T14:34:43.955Z,3.20
2022-08-23T14:39:58.913Z,3.80
2022-08-23T14:42:26.146Z,4.13
2022-08-23T14:44:53.222Z,3.83
2022-08-23T14:47:20.330Z,3.63
2022-08-23T14:49:49.868Z,3.42
2022-08-23T14:52:20.367Z,3.33
2022-08-23T14:54:47.457Z,3.42
2022-08-23T14:57:14.627Z,3.22
2022-08-23T14:59:41.721Z,3.20
2022-08-23T15:02:12.511Z,3.38
2022-08-23T15:04:40.378Z,3.50
2022-08-23T15:07:17.696Z,4.05
2022-08-23T15:09:47.147Z,3.33
2022-08-23T15:15:01.680Z,3.40
2022-08-23T15:17:31.637Z,3.83
2022-08-23T15:19:59.689Z,3.58
2022-08-23T15:22:29.822Z,4.10
2022-08-23T15:24:57.532Z,3.70
2022-08-23T15:27:25.524Z,3.55
2022-08-23T15:29:52.817Z,3.92
2022-08-23T15:32:22.273Z,3.53
2022-08-23T15:34:50.679Z,3.35
2022-08-23T15:37:21.097Z,3.50
2022-08-23T15:39:48.789Z,3.50
2022-08-23T15:42:20.516Z,3.40
2022-08-23T15:44:48.759Z,3.33
2022-08-23T15:47:33.548Z,3.70
2022-08-23T15:50:01.475Z,3.30
2022-08-23T15:52:28.904Z,3.30
2022-08-23T15:54:55.990Z,3.13
2022-08-23T15:57:28.768Z,3.08
2022-08-23T15:59:57.389Z,3.10
2022-08-23T16:02:24.818Z,3.67
2022-08-23T16:04:52.060Z,3.30
2022-08-23T16:07:19.339Z,3.35
2022-08-23T16:09:47.278Z,3.55
2022-08-23T16:12:14.473Z,3.53
2022-08-23T16:14:41.891Z,3.60
2022-08-23T16:17:09.711Z,3.25
2022-08-23T16:19:36.857Z,3.55
2022-08-23T16:22:04.162Z,3.85
2022-08-23T16:24:31.468Z,3.40
2022-08-23T16:26:58.851Z,3.15
2022-08-23T16:29:27.417Z,3.20
2022-08-23T16:31:54.490Z,3.55
2022-08-23T16:34:22.272Z,3.60
2022-08-23T16:36:55.348Z,3.78
2022-08-23T16:39:22.781Z,3.40
2022-08-23T16:41:49.775Z,3.50
2022-08-23T16:44:17.751Z,3.75
2022-08-23T16:46:45.377Z,3.83
2022-08-23T16:49:14.847Z,3.58
2022-08-23T16:51:43.422Z,4.07
2022-08-23T16:54:10.823Z,3.92
2022-08-23T16:56:39.904Z,3.35
2022-08-23T16:59:09.817Z,3.75
2022-08-23T17:01:53.329Z,3.67
2022-08-23T17:04:24.431Z,3.85
2022-08-23T17:06:54.098Z,3.78
2022-08-23T17:09:22.600Z,3.88
2022-08-23T17:11:52.947Z,3.97
2022-08-23T17:14:21.402Z,3.30
2022-08-23T17:16:48.646Z,3.60
2022-08-23T17:19:15.835Z,3.53
2022-08-23T17:21:43.629Z,3.55
2022-08-23T17:24:10.686Z,3.30
2022-08-23T17:26:37.933Z,3.83
2022-08-23T17:29:05.270Z,3.75
2022-08-23T17:31:32.466Z,3.80
2022-08-23T17:34:03.426Z,3.63
2022-08-23T17:36:40.458Z,3.40
2022-08-23T17:39:10.633Z,3.53
2022-08-23T17:41:40.967Z,3.28
2022-08-23T17:44:10.617Z,3.60
2022-08-23T17:46:38.757Z,3.72
2022-08-23T17:49:07.030Z,4.82
2022-08-23T17:51:36.097Z,3.47
2022-08-23T17:54:04.119Z,3.42
2022-08-23T17:56:31.293Z,2.90
2022-08-23T17:58:58.413Z,3.35
2022-08-23T18:01:25.559Z,3.28
2022-08-23T18:03:52.938Z,3.08
2022-08-23T18:06:20.121Z,3.17
2022-08-23T18:08:47.532Z,3.35
2022-08-23T18:11:15.969Z,2.80
2022-08-23T18:13:43.121Z,2.90
2022-08-23T18:16:10.767Z,2.67
2022-08-23T18:18:38.134Z,2.65
2022-08-23T18:21:07.854Z,3.03
2022-08-23T18:23:35.361Z,2.90
2022-08-23T18:26:33.955Z,2.88
2022-08-23T18:29:01.387Z,2.80
2022-08-23T18:31:28.580Z,2.97
2022-08-23T18:34:00.246Z,2.60
2022-08-23T18:36:28.772Z,2.47
2022-08-23T18:38:55.903Z,2.85
2022-08-23T18:41:24.210Z,2.70
2022-08-23T18:43:53.342Z,2.60
2022-08-23T18:46:20.742Z,2.40
2022-08-23T18:48:47.920Z,2.78
2022-08-23T18:51:23.348Z,2.70
2022-08-23T18:53:51.234Z,2.35
2022-08-23T18:56:18.445Z,2.35
2022-08-23T18:58:45.629Z,2.20
2022-08-23T19:01:31.465Z,2.10
2022-08-23T19:04:00.403Z,2.47
2022-08-23T19:06:28.071Z,2.38
2022-08-23T19:08:56.113Z,2.60
2022-08-23T19:11:23.617Z,2.58
2022-08-23T19:13:51.230Z,2.72
2022-08-23T19:16:21.571Z,2.40
2022-08-23T19:18:50.383Z,2.33
2022-08-23T19:21:20.866Z,2.35
2022-08-23T19:23:50.434Z,2.50
2022-08-23T19:26:19.939Z,2.38
2022-08-23T19:28:48.271Z,2.78
2022-08-23T19:31:15.563Z,2.25
2022-08-23T19:33:42.823Z,2.38
2022-08-23T19:36:23.634Z,2.40
2022-08-23T19:38:57.463Z,2.38
2022-08-23T19:41:24.597Z,2.78
2022-08-23T19:43:52.215Z,2.60
2022-08-23T19:46:20.470Z,2.83
2022-08-23T19:48:48.220Z,2.60
2022-08-23T19:51:17.416Z,2.33
2022-08-23T19:54:04.714Z,2.25
2022-08-23T19:56:58.654Z,2.20
2022-08-23T19:59:28.749Z,2.25
2022-08-23T20:01:57.829Z,2.90
2022-08-23T20:04:29.099Z,2.10
2022-08-23T20:06:57.841Z,2.25
2022-08-23T20:09:26.236Z,2.13
2022-08-23T20:11:53.275Z,2.65
2022-08-23T20:14:25.061Z,2.80
2022-08-23T20:16:53.455Z,2.50
2022-08-23T20:19:21.694Z,2.67
2022-08-23T20:21:49.012Z,2.38
2022-08-23T20:24:16.937Z,2.50
2022-08-23T20:26:45.367Z,2.58
2022-08-23T20:29:19.579Z,2.40
2022-08-23T20:31:56.231Z,2.40
2022-08-23T20:34:27.060Z,2.25
2022-08-23T20:36:56.437Z,2.50
2022-08-23T20:39:25.478Z,2.30
2022-08-23T20:41:53.924Z,2.33
2022-08-23T20:44:26.071Z,2.40
2022-08-23T20:46:55.954Z,2.38
2022-08-23T20:49:26.060Z,2.45
2022-08-23T20:51:54.216Z,2.22
2022-08-23T20:54:24.563Z,2.50
2022-08-23T20:56:52.683Z,2.70
2022-08-23T20:59:20.790Z,2.67
2022-08-23T21:01:51.574Z,2.25
2022-08-23T21:04:19.379Z,2.45
2022-08-23T21:06:50.034Z,2.78
2022-08-23T21:09:20.427Z,2.50
2022-08-23T21:11:50.790Z,2.38
2022-08-23T21:14:18.893Z,2.78
2022-08-23T21:16:47.297Z,2.50
2022-08-23T21:19:15.500Z,2.50
2022-08-23T21:21:43.115Z,2.53
2022-08-23T21:24:11.015Z,2.22
2022-08-23T21:26:38.831Z,2.22
2022-08-23T21:29:07.890Z,2.40
2022-08-23T21:31:35.902Z,2.60
2022-08-23T21:34:03.189Z,2.35
2022-08-23T21:36:30.611Z,2.28
2022-08-23T21:38:57.661Z,2.85
2022-08-23T21:41:37.704Z,2.63
2022-08-23T21:44:07.366Z,2.33
2022-08-23T21:46:34.851Z,2.40
2022-08-23T21:49:03.804Z,2.25
2022-08-23T21:51:31.251Z,1.85
2022-08-23T21:54:02.243Z,2.35
2022-08-23T21:56:30.292Z,2.88
2022-08-23T21:59:01.287Z,2.35
2022-08-23T22:01:30.471Z,2.20
2022-08-23T22:03:57.729Z,2.42
2022-08-23T22:06:25.170Z,2.25
2022-08-23T22:08:52.263Z,2.42
2022-08-23T22:11:19.816Z,2.33
2022-08-23T22:13:48.213Z,2.72
2022-08-23T22:16:15.373Z,2.65
2022-08-23T22:18:43.001Z,2.30
2022-08-23T22:21:10.953Z,2.50
2022-08-23T22:23:43.442Z,2.20
2022-08-23T22:26:12.068Z,2.50
2022-08-23T22:28:39.918Z,2.33
2022-08-23T22:31:08.633Z,2.35
2022-08-23T22:33:35.697Z,2.45
2022-08-23T22:36:08.729Z,2.50
2022-08-23T22:38:35.967Z,2.20
2022-08-23T22:41:03.081Z,2.42
2022-08-23T22:43:30.386Z,2.63
2022-08-23T22:46:00.767Z,2.20
2022-08-23T22:48:30.887Z,2.50
2022-08-23T22:51:12.561Z,2.15
2022-08-23T22:53:42.384Z,2.60
2022-08-23T22:56:12.428Z,2.70
2022-08-23T22:58:42.764Z,2.75
2022-08-23T23:01:17.361Z,2.75
2022-08-23T23:03:46.090Z,2.90
2022-08-23T23:06:15.479Z,2.80
2022-08-23T23:08:42.641Z,2.50
2022-08-23T23:11:11.548Z,2.80
2022-08-23T23:13:39.614Z,2.92
2022-08-23T23:16:09.723Z,3.05
2022-08-23T23:18:37.493Z,3.00
2022-08-23T23:21:05.857Z,3.10
2022-08-23T23:23:34.399Z,2.92
2022-08-23T23:26:02.534Z,2.70
2022-08-23T23:28:30.055Z,2.80
2022-08-23T23:30:58.075Z,2.80
2022-08-23T23:33:25.282Z,2.50
2022-08-23T23:35:52.362Z,2.90
2022-08-23T23:38:19.530Z,3.15
2022-08-23T23:40:46.877Z,2.40
2022-08-23T23:43:14.134Z,2.95
2022-08-23T23:45:41.646Z,3.15
2022-08-23T23:48:09.968Z,3.30
2022-08-23T23:50:45.158Z,2.92
2022-08-23T23:53:14.524Z,3.10
2022-08-23T23:55:42.610Z,3.40
2022-08-23T23:58:10.581Z,3.20
